Time;durP1;ratioP1;P1;durP2;ratioP2;P2;SDS_P1;SDS_P2;PMS_P1;PMS_P2;Temp;Humidity;BMP_temperature;BMP_pressure;BME280_temperature;BME280_humidity;BME280_pressure;Samples;Min_cycle;Max_cycle;Signal;HPM_P1;HPM_P2
2023/06/20 04:39:23;;;;;;;4.90;1.52;;;;;;;20.99;67.07;96468.97;5295528;23;20039;-74
2023/06/20 04:41:51;;;;;;;2.40;1.45;;;;;;;21.04;66.54;96462.91;4943606;29;20618;-75
2023/06/20 04:44:19;;;;;;;1.20;1.10;;;;;;;21.06;66.88;96462.69;4938065;28;20059;-76
2023/06/20 04:46:47;;;;;;;1.00;0.95;;;;;;;21.06;66.58;96460.81;4941697;29;20055;-74
2023/06/20 04:49:14;;;;;;;2.25;1.33;;;;;;;21.03;66.39;96455.22;4948210;29;20043;-76
2023/06/20 04:51:42;;;;;;;2.10;1.38;;;;;;;21.02;66.28;96462.38;4955267;29;20114;-75
2023/06/20 04:54:10;;;;;;;1.80;1.10;;;;;;;21.02;65.93;96469.53;4947676;29;20043;-75
2023/06/20 04:56:40;;;;;;;1.27;0.93;;;;;;;20.99;65.75;96468.97;4955081;29;20101;-75
2023/06/20 04:59:08;;;;;;;1.08;0.80;;;;;;;20.94;65.75;96460.97;4954836;29;20079;-75
2023/06/20 05:01:37;;;;;;;2.78;1.20;;;;;;;20.90;65.45;96453.75;4951602;29;20056;-75
2023/06/20 05:04:05;;;;;;;1.75;1.63;;;;;;;20.84;65.39;96450.28;4955045;29;20050;-74
2023/06/20 05:06:33;;;;;;;2.35;1.40;;;;;;;20.81;65.70;96444.66;4954705;29;20431;-75
2023/06/20 05:09:00;;;;;;;1.33;1.17;;;;;;;20.80;66.43;96456.34;4954812;29;20041;-75
2023/06/20 05:11:28;;;;;;;1.80;1.33;;;;;;;20.83;66.41;96463.78;4955011;29;20126;-75
2023/06/20 05:13:57;;;;;;;1.75;1.65;;;;;;;20.86;65.92;96468.56;4955020;29;20121;-76
2023/06/20 05:16:24;;;;;;;3.55;2.20;;;;;;;20.84;65.24;96460.88;4953955;29;20055;-77
2023/06/20 05:18:52;;;;;;;5.13;2.17;;;;;;;20.83;65.04;96467.22;4952357;29;20514;-76
2023/06/20 05:21:20;;;;;;;2.60;2.40;;;;;;;20.84;64.84;96476.78;4956178;29;20055;-76
2023/06/20 05:23:47;;;;;;;2.95;2.17;;;;;;;20.83;65.00;96475.19;4953824;28;20052;-76
2023/06/20 05:26:15;;;;;;;2.45;2.08;;;;;;;20.85;65.80;96482.88;4954563;29;20074;-76
2023/06/20 05:28:42;;;;;;;3.22;2.33;;;;;;;20.82;65.58;96486.84;4954754;29;20106;-76
2023/06/20 05:31:11;;;;;;;4.22;2.53;;;;;;;20.81;65.91;96490.53;4953933;29;20098;-76
2023/06/20 05:34:04;;;;;;;2.50;2.30;;;;;;;20.84;65.56;96495.34;4955786;29;20054;-77
2023/06/20 05:45:23;;;;;;;5.40;2.35;;;;;;;20.90;65.20;96499.66;5847269;23;20447;-76
2023/06/20 05:47:52;;;;;;;2.50;1.73;;;;;;;20.91;65.12;96498.59;4952777;29;20047;-77
2023/06/20 05:50:20;;;;;;;2.05;1.83;;;;;;;20.93;65.51;96491.19;4953383;29;20055;-77
2023/06/20 05:52:47;;;;;;;5.07;1.80;;;;;;;20.96;65.28;96498.63;4954193;29;20058;-77
2023/06/20 05:55:15;;;;;;;3.83;1.80;;;;;;;21.00;65.16;96491.00;4954655;29;20062;-79
2023/06/20 05:57:42;;;;;;;2.10;1.67;;;;;;;21.11;64.79;96502.50;4953833;29;20566;-77
2023/06/20 06:00:12;;;;;;;2.35;1.60;;;;;;;21.23;64.40;96502.31;4953826;29;20070;-77
2023/06/20 06:02:40;;;;;;;1.67;1.33;;;;;;;21.35;64.08;96495.00;4954321;29;20052;-77
2023/06/20 06:05:09;;;;;;;5.88;3.20;;;;;;;21.48;63.47;96496.47;4954826;29;20059;-77
2023/06/20 06:07:38;;;;;;;4.28;2.15;;;;;;;21.53;63.33;96499.97;4954291;29;20062;-77
2023/06/20 06:10:07;;;;;;;3.67;1.83;;;;;;;21.58;63.68;96507.16;4954038;29;20047;-77
2023/06/20 06:12:35;;;;;;;3.67;2.00;;;;;;;21.58;63.77;96512.47;4954086;29;20055;-77
2023/06/20 06:15:03;;;;;;;3.95;1.92;;;;;;;21.60;63.40;96510.34;4954400;29;20051;-77
2023/06/20 06:17:30;;;;;;;6.55;1.77;;;;;;;21.64;63.39;96500.84;4954379;29;20055;-77
2023/06/20 06:19:59;;;;;;;5.10;2.00;;;;;;;21.68;63.08;96511.75;4954155;29;20047;-77
2023/06/20 06:22:28;;;;;;;3.78;1.95;;;;;;;21.74;63.30;96511.53;4954205;29;20075;-77
2023/06/20 06:24:56;;;;;;;5.45;2.38;;;;;;;21.81;62.95;96512.09;4954374;29;20628;-77
2023/06/20 06:27:23;;;;;;;4.53;2.15;;;;;;;21.89;63.15;96518.00;4954128;29;20051;-77
2023/06/20 06:29:51;;;;;;;3.70;1.80;;;;;;;21.94;62.92;96510.88;4954183;29;20137;-77
2023/06/20 06:32:20;;;;;;;4.47;1.98;;;;;;;21.98;62.71;96514.59;4954187;29;20114;-77
2023/06/20 06:34:49;;;;;;;5.50;2.13;;;;;;;22.04;62.73;96515.44;4956538;28;20451;-77
2023/06/20 06:37:17;;;;;;;3.67;2.00;;;;;;;22.10;62.60;96519.72;4958047;29;20099;-77
2023/06/20 06:39:46;;;;;;;3.50;2.13;;;;;;;22.16;62.65;96515.25;4957851;29;20598;-77
2023/06/20 06:42:14;;;;;;;4.82;2.15;;;;;;;22.20;63.06;96522.44;4957858;29;20515;-77
2023/06/20 06:44:41;;;;;;;5.53;2.67;;;;;;;22.24;63.18;96521.94;4957969;29;20055;-77
2023/06/20 06:47:09;;;;;;;3.67;2.53;;;;;;;22.26;62.53;96511.84;4979440;29;20071;-77
2023/06/20 06:49:36;;;;;;;2.72;2.10;;;;;;;22.32;62.57;96516.94;4976129;29;20079;-77
2023/06/20 06:52:05;;;;;;;3.30;2.13;;;;;;;22.41;62.30;96522.56;4960449;29;20121;-77
2023/06/20 06:54:32;;;;;;;7.38;2.50;;;;;;;22.48;61.64;96523.13;4958733;29;20051;-77
2023/06/20 06:57:01;;;;;;;6.68;2.03;;;;;;;22.56;61.12;96522.63;4957800;29;20052;-77
2023/06/20 06:59:29;;;;;;;4.07;2.65;;;;;;;22.63;61.32;96517.88;4957637;29;20097;-77
2023/06/20 07:01:56;;;;;;;3.40;2.03;;;;;;;22.73;60.73;96514.44;4957865;29;20103;-77
2023/06/20 07:04:24;;;;;;;5.05;2.33;;;;;;;22.82;60.40;96514.72;4959534;29;20062;-77
2023/06/20 07:06:52;;;;;;;15.25;3.08;;;;;;;22.93;62.25;96507.59;4980441;28;20039;-77
2023/06/20 07:09:20;;;;;;;5.00;2.83;;;;;;;23.03;60.78;96511.09;4980167;28;20086;-78
2023/06/20 07:11:48;;;;;;;4.53;2.47;;;;;;;23.15;63.43;96510.03;4976671;29;20050;-77
2023/06/20 07:14:16;;;;;;;4.18;2.70;;;;;;;23.23;61.84;96509.53;4968246;29;20055;-77
2023/06/20 07:16:44;;;;;;;5.85;2.40;;;;;;;23.32;61.89;96512.47;4968278;29;20106;-78
2023/06/20 07:19:31;;;;;;;6.97;2.67;;;;;;;23.43;60.43;96512.19;4966032;29;20058;-78
2023/06/20 07:21:59;;;;;;;6.07;2.75;;;;;;;23.53;60.30;96503.41;4966255;29;20078;-78
2023/06/20 07:24:26;;;;;;;4.07;2.42;;;;;;;23.62;61.65;96507.13;4967142;29;20055;-78
2023/06/20 07:26:54;;;;;;;3.40;2.15;;;;;;;23.71;61.01;96504.72;4963725;29;20054;-78
2023/06/20 07:29:23;;;;;;;4.15;2.08;;;;;;;23.82;61.23;96510.88;4963263;29;20102;-78
2023/06/20 07:31:50;;;;;;;6.68;2.83;;;;;;;23.92;59.73;96504.72;4961919;29;20105;-78
2023/06/20 07:34:18;;;;;;;4.50;2.35;;;;;;;24.01;58.15;96511.91;4959920;29;20062;-79
2023/06/20 07:36:45;;;;;;;3.85;2.40;;;;;;;24.11;58.63;96503.09;4958778;29;20562;-78
2023/06/20 07:39:13;;;;;;;4.47;2.15;;;;;;;24.21;58.54;96505.72;4957891;29;20055;-79
2023/06/20 07:41:41;;;;;;;3.78;2.25;;;;;;;24.29;57.71;96498.25;4957921;29;20051;-77
2023/06/20 07:44:10;;;;;;;4.03;2.50;;;;;;;24.41;57.67;96504.84;4957700;29;20110;-78
2023/06/20 07:46:40;;;;;;;7.82;2.30;;;;;;;24.53;59.36;96509.09;4956404;28;20061;-79
2023/06/20 07:49:07;;;;;;;3.65;2.25;;;;;;;24.63;59.42;96509.84;4957536;29;20054;-78
2023/06/20 07:51:36;;;;;;;5.32;3.00;;;;;;;24.73;57.62;96510.88;4957365;29;20539;-78
2023/06/20 07:54:04;;;;;;;5.60;2.40;;;;;;;24.83;56.52;96508.16;4957226;29;20051;-78
2023/06/20 07:56:31;;;;;;;4.05;2.35;;;;;;;24.95;56.47;96513.16;4956915;29;20051;-78
2023/06/20 07:58:59;;;;;;;5.60;3.03;;;;;;;25.07;56.72;96506.41;4957306;29;20055;-78
2023/06/20 08:01:27;;;;;;;7.38;2.70;;;;;;;25.20;59.11;96506.91;4956907;29;20417;-78
2023/06/20 08:03:56;;;;;;;5.82;2.70;;;;;;;25.32;57.62;96496.69;4956938;29;20053;-78
2023/06/20 08:06:24;;;;;;;4.93;3.10;;;;;;;25.46;58.03;96502.97;4956442;29;20057;-78
2023/06/20 08:08:52;;;;;;;4.97;2.70;;;;;;;25.56;55.06;96496.75;4956609;29;20055;-77
2023/06/20 08:11:21;;;;;;;4.50;2.45;;;;;;;25.66;54.02;96496.66;4956157;29;20058;-78
2023/06/20 08:13:48;;;;;;;5.18;3.28;;;;;;;25.80;55.64;96498.66;4956235;29;20496;-79
2023/06/20 08:16:16;;;;;;;6.93;2.83;;;;;;;25.91;53.82;96500.22;4956446;29;20051;-78
2023/06/20 08:18:44;;;;;;;6.15;2.80;;;;;;;26.01;52.91;96496.63;4956561;29;20074;-78
2023/06/20 08:21:13;;;;;;;8.35;3.85;;;;;;;26.09;52.17;96490.66;4956173;29;20054;-78
2023/06/20 08:23:40;;;;;;;6.43;3.28;;;;;;;26.21;52.38;96488.38;4955877;29;20058;-78
2023/06/20 08:26:08;;;;;;;7.10;3.20;;;;;;;26.31;52.76;96485.59;4956325;29;20063;-78
2023/06/20 08:28:36;;;;;;;6.88;2.85;;;;;;;26.43;51.80;96490.53;4955924;29;20055;-78
2023/06/20 08:31:04;;;;;;;6.32;2.90;;;;;;;26.54;52.34;96501.09;4956534;29;20051;-78
2023/06/20 08:33:31;;;;;;;6.50;3.70;;;;;;;26.64;51.89;96491.09;4957050;29;20105;-78
2023/06/20 08:35:59;;;;;;;4.68;3.10;;;;;;;26.75;51.97;96485.63;4955755;29;20059;-78
2023/06/20 08:38:28;;;;;;;5.00;2.90;;;;;;;26.84;51.44;96489.25;4955835;29;20395;-78
2023/06/20 08:40:55;;;;;;;8.15;3.10;;;;;;;26.94;51.40;96489.09;4956092;29;20074;-78
2023/06/20 08:43:23;;;;;;;5.18;3.10;;;;;;;27.00;51.06;96495.94;4955898;29;20047;-79
2023/06/20 08:45:55;;;;;;;8.02;3.42;;;;;;;27.09;50.39;96496.91;4955641;29;20515;-78
2023/06/20 08:48:23;;;;;;;5.85;3.28;;;;;;;27.17;49.81;96494.66;4955851;29;20051;-79
2023/06/20 08:50:52;;;;;;;5.82;3.25;;;;;;;27.27;50.60;96491.88;4954723;29;20051;-76
2023/06/20 08:53:21;;;;;;;3.92;2.72;;;;;;;27.33;49.78;96479.97;4954963;29;20071;-76
2023/06/20 08:55:53;;;;;;;7.70;3.27;;;;;;;27.40;50.80;96490.28;4954763;29;20051;-76
2023/06/20 08:58:21;;;;;;;4.63;3.22;;;;;;;27.44;48.49;96489.44;4953800;28;20412;-76
2023/06/20 09:00:49;;;;;;;3.85;3.22;;;;;;;27.51;47.05;96486.38;4954488;29;20570;-76
2023/06/20 09:03:17;;;;;;;5.43;3.38;;;;;;;27.59;48.94;96485.69;4954670;29;20051;-75
2023/06/20 09:05:46;;;;;;;5.43;3.30;;;;;;;27.66;49.59;96493.34;4954477;29;20090;-76
2023/06/20 09:08:15;;;;;;;8.75;3.50;;;;;;;27.73;49.24;96491.09;4954648;29;20054;-75
2023/06/20 09:10:44;;;;;;;6.50;3.60;;;;;;;27.77;49.47;96475.22;4954453;29;20062;-76
2023/06/20 09:13:14;;;;;;;5.05;3.45;;;;;;;27.81;45.88;96474.31;4954356;29;20058;-75
2023/06/20 09:15:41;;;;;;;7.25;3.30;;;;;;;27.90;45.52;96472.59;4954129;29;20147;-75
2023/06/20 09:18:13;;;;;;;5.75;3.40;;;;;;;28.03;45.36;96464.84;4954512;29;20055;-76
2023/06/20 09:20:43;;;;;;;8.25;3.90;;;;;;;28.10;44.90;96466.06;4954165;29;20063;-76
2023/06/20 09:23:11;;;;;;;10.55;4.13;;;;;;;28.19;44.76;96462.69;4954477;29;20082;-75
2023/06/20 09:25:39;;;;;;;6.68;4.35;;;;;;;28.28;44.08;96459.00;4954307;29;20058;-76
2023/06/20 09:28:16;;;;;;;7.00;3.60;;;;;;;28.35;44.21;96459.38;4954165;29;20077;-76
2023/06/20 09:30:45;;;;;;;4.63;3.60;;;;;;;28.43;44.19;96455.22;4954367;29;20471;-76
2023/06/20 09:33:14;;;;;;;7.72;3.67;;;;;;;28.48;43.28;96459.69;4954142;29;20098;-75
2023/06/20 09:35:42;;;;;;;6.20;3.50;;;;;;;28.53;43.00;96456.91;4954057;29;20082;-76
2023/06/20 09:38:10;;;;;;;8.30;3.80;;;;;;;28.60;44.13;96462.66;4953890;29;20504;-76
2023/06/20 09:40:44;;;;;;;6.50;3.45;;;;;;;28.66;44.88;96456.06;4953708;29;20423;-75
2023/06/20 09:43:11;;;;;;;6.43;3.38;;;;;;;28.72;42.80;96460.25;4954035;29;20058;-75
2023/06/20 09:45:40;;;;;;;5.85;3.75;;;;;;;28.81;43.04;96460.31;4953818;29;20472;-76
2023/06/20 09:48:09;;;;;;;5.68;3.70;;;;;;;28.89;42.48;96442.72;4953873;29;20058;-75
2023/06/20 09:50:38;;;;;;;8.02;3.75;;;;;;;28.98;42.45;96440.88;4953783;29;20066;-76
2023/06/20 09:53:16;;;;;;;4.53;3.42;;;;;;;29.05;45.13;96441.25;4953599;29;20047;-76
2023/06/20 09:55:44;;;;;;;5.85;3.15;;;;;;;29.11;45.00;96439.28;4953989;29;20487;-78
2023/06/20 09:58:14;;;;;;;7.55;3.53;;;;;;;29.13;44.20;96437.88;4954974;29;20109;-77
2023/06/20 10:00:43;;;;;;;4.57;3.17;;;;;;;29.16;43.82;96431.09;4954718;29;20047;-78
2023/06/20 10:03:12;;;;;;;4.22;3.10;;;;;;;29.24;42.23;96427.66;4954578;29;20051;-77
2023/06/20 10:05:42;;;;;;;6.55;3.63;;;;;;;29.35;42.36;96433.59;4954545;29;20492;-78
2023/06/20 10:08:10;;;;;;;4.88;3.08;;;;;;;29.43;41.95;96430.16;4954090;28;20051;-78
2023/06/20 10:10:37;;;;;;;5.97;3.22;;;;;;;29.49;39.40;96428.91;4954415;29;20047;-78
2023/06/20 10:13:06;;;;;;;4.60;3.15;;;;;;;29.57;40.56;96432.75;4954302;29;20110;-78
2023/06/20 10:15:34;;;;;;;5.22;3.67;;;;;;;29.65;39.08;96425.81;4954296;29;20087;-75
2023/06/20 10:18:05;;;;;;;9.85;3.90;;;;;;;29.76;38.74;96427.19;4953310;29;20566;-75
2023/06/20 10:20:37;;;;;;;5.93;3.30;;;;;;;29.85;37.83;96425.34;4953658;29;20051;-75
2023/06/20 10:23:07;;;;;;;7.07;3.60;;;;;;;29.94;38.36;96414.63;4953399;29;20496;-75
2023/06/20 10:25:35;;;;;;;8.23;3.55;;;;;;;30.04;38.14;96421.59;4953482;29;20106;-75
2023/06/20 10:28:05;;;;;;;4.88;3.58;;;;;;;30.12;38.06;96418.94;4953317;29;20051;-76
2023/06/20 10:30:57;;;;;;;3.53;3.03;;;;;;;30.24;38.35;96422.91;4953408;29;20059;-76
2023/06/20 10:33:27;;;;;;;4.70;3.72;;;;;;;30.30;39.24;96419.78;4953766;29;20043;-75
2023/06/20 10:35:57;;;;;;;8.32;4.18;;;;;;;30.35;37.64;96418.84;4953340;29;20142;-76
2023/06/20 10:38:24;;;;;;;6.65;4.13;;;;;;;30.42;36.85;96410.34;4953187;29;20574;-76
2023/06/20 10:41:13;;;;;;;6.72;3.80;;;;;;;30.48;38.41;96415.25;4953300;29;20122;-76
2023/06/20 10:43:48;;;;;;;6.45;3.65;;;;;;;30.53;36.19;96414.31;4953445;29;20089;-76
2023/06/20 10:46:16;;;;;;;6.50;3.25;;;;;;;30.51;35.89;96409.22;4953131;29;20055;-76
2023/06/20 10:48:46;;;;;;;6.65;3.53;;;;;;;30.52;36.69;96407.31;4952989;29;20110;-76
2023/06/20 10:51:13;;;;;;;4.55;2.83;;;;;;;30.61;36.90;96402.72;4953195;29;20113;-75
2023/06/20 10:53:41;;;;;;;5.28;3.42;;;;;;;30.68;35.94;96408.44;4953177;29;20198;-76
2023/06/20 10:56:08;;;;;;;6.72;3.65;;;;;;;30.71;35.33;96401.63;4953068;29;20555;-75
2023/06/20 10:58:36;;;;;;;5.18;3.58;;;;;;;30.75;35.83;96408.75;4952996;29;20098;-76
2023/06/20 11:01:03;;;;;;;9.07;4.30;;;;;;;30.82;35.63;96396.72;4952986;29;20492;-76
2023/06/20 11:03:32;;;;;;;4.40;3.20;;;;;;;30.87;35.99;96394.69;4953080;29;20055;-76
2023/06/20 11:06:01;;;;;;;6.93;3.80;;;;;;;30.95;35.94;96395.81;4952861;29;20090;-76
2023/06/20 11:08:29;;;;;;;5.30;3.60;;;;;;;31.02;35.37;96385.31;4953017;29;20055;-76
2023/06/20 11:10:57;;;;;;;6.88;3.60;;;;;;;31.11;34.97;96394.19;4953255;29;20051;-76
2023/06/20 11:13:25;;;;;;;6.75;4.82;;;;;;;31.18;34.80;96389.13;4953110;29;20051;-76
2023/06/20 11:15:52;;;;;;;6.80;3.85;;;;;;;31.21;34.81;96387.69;4953934;29;20130;-75
2023/06/20 11:18:21;;;;;;;5.20;3.58;;;;;;;31.22;34.60;96389.25;4953876;29;20099;-76
2023/06/20 11:20:49;;;;;;;5.03;3.85;;;;;;;31.27;34.68;96391.78;4955089;28;20427;-76
2023/06/20 11:23:18;;;;;;;9.32;4.20;;;;;;;31.29;35.20;96394.16;4956924;29;20043;-76
2023/06/20 11:25:45;;;;;;;6.38;3.55;;;;;;;31.31;33.98;96387.34;4956422;29;20071;-76
2023/06/20 11:28:14;;;;;;;5.80;3.63;;;;;;;31.36;34.02;96384.47;4956465;29;20175;-76
2023/06/20 11:30:43;;;;;;;8.45;4.03;;;;;;;31.41;33.30;96391.59;4956278;29;20050;-76
2023/06/20 11:33:13;;;;;;;8.40;4.45;;;;;;;31.45;33.49;96387.16;4956234;29;20439;-75
2023/06/20 11:35:49;;;;;;;6.13;3.63;;;;;;;31.54;33.16;96374.44;4956118;29;20061;-76
2023/06/20 11:38:20;;;;;;;5.45;3.65;;;;;;;31.59;33.02;96376.19;4956386;29;20478;-75
2023/06/20 11:40:59;;;;;;;6.80;3.35;;;;;;;31.63;33.53;96376.31;4956250;29;20082;-75
2023/06/20 11:43:28;;;;;;;5.85;3.92;;;;;;;31.67;32.91;96377.25;4956096;29;20102;-76
2023/06/20 11:46:00;;;;;;;8.30;4.70;;;;;;;31.73;32.64;96371.38;4955539;29;20182;-76
2023/06/20 11:48:28;;;;;;;6.18;3.53;;;;;;;31.79;32.28;96371.97;4956059;29;20126;-76
2023/06/20 11:50:58;;;;;;;7.57;3.47;;;;;;;31.84;31.96;96371.78;4955999;29;20086;-76
2023/06/20 11:53:29;;;;;;;7.68;3.40;;;;;;;31.86;32.15;96368.75;4955910;29;20126;-75
2023/06/20 11:55:59;;;;;;;7.50;3.22;;;;;;;31.90;31.86;96365.06;4955744;29;20051;-76
2023/06/20 11:58:29;;;;;;;5.05;3.40;;;;;;;31.88;31.94;96364.63;4955859;29;20051;-76
2023/06/20 12:01:04;;;;;;;5.95;3.58;;;;;;;31.86;32.47;96356.09;4955680;29;20515;-76
2023/06/20 12:03:32;;;;;;;5.10;3.92;;;;;;;31.91;32.61;96355.09;4955695;29;20518;-76
2023/06/20 12:05:59;;;;;;;7.03;3.10;;;;;;;31.97;32.28;96349.22;4955649;29;20051;-76
2023/06/20 12:08:35;;;;;;;6.70;3.83;;;;;;;32.02;32.00;96351.72;4955717;29;20051;-75
2023/06/20 12:11:04;;;;;;;10.98;4.32;;;;;;;32.04;31.62;96347.94;4955955;29;20436;-76
2023/06/20 12:13:33;;;;;;;10.02;8.00;;;;;;;32.01;33.17;96342.06;4955760;29;20047;-76
2023/06/20 12:16:01;;;;;;;9.93;4.55;;;;;;;32.05;32.45;96339.47;4955438;29;20471;-76
2023/06/20 12:18:28;;;;;;;8.15;4.65;;;;;;;32.09;32.90;96329.63;4955582;29;20434;-75
2023/06/20 12:20:56;;;;;;;8.65;4.15;;;;;;;32.17;32.40;96341.50;4956324;29;20052;-75
2023/06/20 12:23:34;;;;;;;6.22;3.55;;;;;;;32.20;31.94;96335.41;4956428;29;20049;-76
2023/06/20 12:26:02;;;;;;;7.97;4.20;;;;;;;32.22;31.09;96327.78;4955129;29;20051;-76
2023/06/20 12:28:30;;;;;;;7.35;3.97;;;;;;;32.24;31.42;96333.66;4955366;29;20142;-76
2023/06/20 12:30:59;;;;;;;8.48;3.88;;;;;;;32.24;30.94;96330.94;4955386;29;20051;-76
2023/06/20 12:33:26;;;;;;;10.55;4.15;;;;;;;32.26;33.23;96327.94;4954963;29;20054;-76
2023/06/20 12:35:54;;;;;;;8.27;4.25;;;;;;;32.27;30.90;96330.28;4954836;29;20055;-76
2023/06/20 12:38:22;;;;;;;8.60;4.50;;;;;;;32.29;31.37;96322.66;4955246;29;20051;-75
2023/06/20 12:40:51;;;;;;;6.97;4.10;;;;;;;32.33;30.49;96328.19;4955117;29;20138;-75
2023/06/20 12:43:18;;;;;;;8.05;4.10;;;;;;;32.33;30.08;96323.56;4955031;29;20110;-76
2023/06/20 12:45:47;;;;;;;7.70;4.00;;;;;;;32.34;32.22;96325.16;4954645;29;20188;-76
2023/06/20 12:48:14;;;;;;;10.63;3.97;;;;;;;32.34;33.58;96327.06;4954957;29;20129;-75
2023/06/20 12:50:42;;;;;;;9.65;4.78;;;;;;;32.34;31.28;96329.75;4954973;29;20055;-76
2023/06/20 12:53:10;;;;;;;9.50;3.83;;;;;;;32.37;31.02;96329.91;4955058;29;20459;-76
2023/06/20 12:55:37;;;;;;;7.30;3.40;;;;;;;32.37;30.24;96329.13;4954659;29;20082;-76
2023/06/20 12:58:06;;;;;;;8.02;3.42;;;;;;;32.39;30.53;96337.69;4954630;29;20499;-76
2023/06/20 13:00:36;;;;;;;9.15;4.18;;;;;;;32.46;31.07;96329.03;4954621;29;20055;-77
2023/06/20 13:03:03;;;;;;;9.25;3.83;;;;;;;32.52;30.81;96319.63;4954487;29;20047;-76
2023/06/20 13:05:33;;;;;;;8.63;3.80;;;;;;;32.55;30.67;96319.00;4954526;29;20051;-77
2023/06/20 13:08:02;;;;;;;8.38;3.95;;;;;;;32.56;30.42;96320.56;4954466;29;20431;-77
2023/06/20 13:10:30;;;;;;;8.73;3.97;;;;;;;32.56;30.47;96315.97;4954471;29;20087;-76
2023/06/20 13:12:58;;;;;;;7.35;4.05;;;;;;;32.57;32.12;96319.44;4954443;29;20079;-76
2023/06/20 13:15:29;;;;;;;7.43;4.05;;;;;;;32.54;32.59;96317.44;4954220;29;20483;-76
2023/06/20 13:17:58;;;;;;;7.88;4.35;;;;;;;32.50;31.97;96321.88;4954377;29;20051;-77
2023/06/20 13:20:26;;;;;;;6.88;4.15;;;;;;;32.42;32.36;96316.19;4954244;29;20084;-77
2023/06/20 13:22:55;;;;;;;8.07;4.05;;;;;;;32.37;33.69;96319.09;4954116;29;20504;-77
2023/06/20 13:25:22;;;;;;;8.55;4.20;;;;;;;32.33;31.34;96307.38;4954271;29;20048;-77
2023/06/20 13:27:51;;;;;;;10.98;4.35;;;;;;;32.33;31.04;96310.06;4953837;29;20464;-76
2023/06/20 13:30:19;;;;;;;7.18;4.00;;;;;;;32.36;31.88;96306.75;4954318;29;20083;-77
2023/06/20 13:32:48;;;;;;;8.38;4.30;;;;;;;32.41;32.42;96306.53;4954255;29;20408;-76
2023/06/20 13:35:17;;;;;;;6.90;4.05;;;;;;;32.41;30.67;96301.13;4953990;29;20059;-77
2023/06/20 13:37:45;;;;;;;6.53;4.05;;;;;;;32.39;33.48;96299.88;4953848;29;20054;-77
2023/06/20 13:40:12;;;;;;;7.55;4.03;;;;;;;32.35;33.48;96307.84;4953896;29;20090;-76
2023/06/20 13:42:42;;;;;;;10.52;4.57;;;;;;;32.35;30.80;96305.16;4953844;28;20118;-76
2023/06/20 13:45:11;;;;;;;8.45;3.85;;;;;;;32.36;30.28;96301.34;4953671;29;20086;-77
2023/06/20 13:47:40;;;;;;;9.23;4.15;;;;;;;32.33;31.42;96301.19;4953653;29;20082;-77
2023/06/20 13:50:11;;;;;;;9.77;4.35;;;;;;;32.27;33.08;96297.91;4953782;29;20427;-77
2023/06/20 13:52:39;;;;;;;10.57;4.28;;;;;;;32.22;32.55;96295.41;4953856;29;20047;-76
2023/06/20 13:55:07;;;;;;;6.13;3.92;;;;;;;32.21;30.30;96288.44;4953605;29;20467;-77
2023/06/20 13:57:35;;;;;;;12.60;4.40;;;;;;;32.21;30.66;96288.44;4953761;29;20082;-76
2023/06/20 14:00:06;;;;;;;9.63;4.43;;;;;;;32.21;31.74;96285.75;4953777;29;20138;-76
2023/06/20 14:02:34;;;;;;;11.93;4.22;;;;;;;32.19;30.22;96285.28;4953684;29;20507;-76
2023/06/20 14:05:01;;;;;;;17.25;12.15;;;;;;;32.18;31.69;96281.00;4953619;29;20082;-76
2023/06/20 14:07:32;;;;;;;10.98;6.07;;;;;;;32.14;30.37;96278.19;4953442;29;20122;-77
2023/06/20 14:10:00;;;;;;;14.43;9.48;;;;;;;32.12;31.84;96276.91;4953771;29;20055;-76
2023/06/20 14:12:27;;;;;;;14.80;6.80;;;;;;;32.11;32.72;96278.81;4953484;29;20055;-77
2023/06/20 14:14:55;;;;;;;9.52;6.47;;;;;;;32.06;32.31;96270.16;4953508;29;20055;-77
2023/06/20 14:17:23;;;;;;;14.02;8.30;;;;;;;31.98;32.79;96277.16;4953284;29;20055;-77
2023/06/20 14:19:50;;;;;;;10.80;4.10;;;;;;;31.91;30.82;96274.97;4953319;29;20074;-77
2023/06/20 14:22:18;;;;;;;11.82;4.15;;;;;;;31.89;30.70;96265.63;4953439;29;20114;-77
2023/06/20 14:24:47;;;;;;;8.05;4.20;;;;;;;31.93;30.00;96271.94;4953330;29;20139;-77
2023/06/20 14:27:15;;;;;;;7.15;4.20;;;;;;;31.96;31.01;96263.97;4953237;29;20609;-77
2023/06/20 14:29:42;;;;;;;7.57;4.65;;;;;;;31.99;31.10;96268.75;4953201;29;20078;-76
2023/06/20 14:32:10;;;;;;;9.70;4.75;;;;;;;31.99;32.79;96271.47;4953140;29;20522;-77
2023/06/20 14:34:38;;;;;;;7.90;4.68;;;;;;;31.98;30.74;96259.06;4953142;29;20172;-76
2023/06/20 14:37:06;;;;;;;9.15;3.83;;;;;;;32.00;30.68;96256.84;4953103;29;20109;-77
2023/06/20 14:39:33;;;;;;;10.90;4.22;;;;;;;32.04;30.35;96248.09;4953230;29;20058;-77
2023/06/20 14:42:02;;;;;;;10.85;4.90;;;;;;;32.08;29.73;96257.09;4953142;29;20055;-77
2023/06/20 14:44:30;;;;;;;9.73;4.72;;;;;;;32.08;30.07;96252.50;4953073;29;20098;-76
2023/06/20 14:46:58;;;;;;;9.07;4.15;;;;;;;32.07;29.91;96247.44;4952736;29;20093;-76
2023/06/20 14:49:26;;;;;;;7.90;3.90;;;;;;;32.09;30.25;96243.28;4953287;29;20051;-76
2023/06/20 14:51:53;;;;;;;10.30;4.50;;;;;;;32.12;29.75;96229.16;4953037;29;20563;-77
2023/06/20 14:54:21;;;;;;;7.97;5.03;;;;;;;32.15;30.33;96233.88;4953441;28;20075;-77
2023/06/20 14:56:49;;;;;;;12.20;4.63;;;;;;;32.16;30.36;96242.75;4956691;29;20054;-77
2023/06/20 14:59:18;;;;;;;6.68;3.50;;;;;;;32.14;30.98;96245.00;4956823;29;20492;-77
2023/06/20 15:01:46;;;;;;;11.13;4.20;;;;;;;32.12;30.28;96236.44;4956781;29;20475;-77
2023/06/20 15:04:14;;;;;;;8.55;4.13;;;;;;;32.10;30.25;96238.66;4956568;29;20514;-77
2023/06/20 15:06:42;;;;;;;19.23;11.98;;;;;;;32.08;32.13;96232.81;4956783;29;20518;-77
2023/06/20 15:09:09;;;;;;;16.77;9.88;;;;;;;32.04;30.91;96240.00;4956930;29;20429;-77
2023/06/20 15:11:37;;;;;;;10.38;6.00;;;;;;;32.00;31.11;96245.25;4956721;29;20058;-77
2023/06/20 15:14:05;;;;;;;20.20;5.47;;;;;;;32.01;30.40;96247.63;4956582;29;20085;-77
2023/06/20 15:16:34;;;;;;;11.05;4.80;;;;;;;32.06;29.97;96254.75;4956705;29;20086;-76
2023/06/20 15:19:03;;;;;;;12.40;4.82;;;;;;;32.10;30.88;96246.75;4956638;29;20057;-77
2023/06/20 15:21:31;;;;;;;9.18;4.13;;;;;;;32.10;29.52;96244.88;4956607;29;20047;-76
2023/06/20 15:23:59;;;;;;;11.57;4.32;;;;;;;32.08;29.28;96238.22;4956368;29;20075;-77
2023/06/20 15:26:28;;;;;;;9.50;4.90;;;;;;;32.04;31.96;96240.78;4956225;29;20059;-76
2023/06/20 15:28:56;;;;;;;11.15;5.22;;;;;;;31.97;32.11;96241.31;4956540;29;20078;-76
2023/06/20 15:31:23;;;;;;;16.08;5.30;;;;;;;31.91;32.41;96241.81;4956708;29;20075;-77
2023/06/20 15:33:52;;;;;;;11.57;5.18;;;;;;;31.87;32.82;96238.19;4956405;29;20051;-76
2023/06/20 15:36:20;;;;;;;10.50;4.90;;;;;;;31.84;31.11;96226.16;4956226;29;20106;-77
2023/06/20 15:38:48;;;;;;;14.60;4.90;;;;;;;31.85;29.49;96227.72;4956323;29;20439;-77
2023/06/20 15:41:15;;;;;;;11.15;4.68;;;;;;;31.90;29.93;96222.13;4947147;29;20130;-78
2023/06/20 15:43:43;;;;;;;13.35;4.72;;;;;;;31.94;29.85;96223.03;4937312;29;20082;-77
2023/06/20 15:46:10;;;;;;;10.73;4.65;;;;;;;31.95;33.39;96221.16;4936037;29;20048;-77
2023/06/20 15:48:56;;;;;;;9.77;4.50;;;;;;;31.93;31.70;96224.19;4936526;29;20143;-77
2023/06/20 15:51:25;;;;;;;14.02;4.88;;;;;;;31.92;34.16;96216.41;4936785;29;20464;-77
2023/06/20 15:53:53;;;;;;;11.38;4.53;;;;;;;31.89;33.21;96220.56;4936474;29;20079;-77
2023/06/20 15:56:20;;;;;;;13.75;4.97;;;;;;;31.85;32.15;96216.94;4936188;29;20110;-77
2023/06/20 15:58:48;;;;;;;10.82;4.22;;;;;;;31.85;33.41;96214.25;4936470;29;20051;-77
2023/06/20 16:01:16;;;;;;;10.90;4.50;;;;;;;31.84;31.69;96220.75;4936421;29;20477;-77
2023/06/20 16:03:43;;;;;;;11.35;4.43;;;;;;;31.83;33.12;96219.16;4936442;29;20055;-77
2023/06/20 16:06:12;;;;;;;8.52;4.43;;;;;;;31.80;33.10;96209.84;4935636;29;20056;-77
2023/06/20 16:08:40;;;;;;;10.25;4.95;;;;;;;31.82;31.34;96204.13;4936719;29;20106;-77
2023/06/20 16:11:08;;;;;;;8.38;4.47;;;;;;;31.87;33.19;96208.53;4936778;29;20098;-77
2023/06/20 16:13:35;;;;;;;8.65;4.20;;;;;;;31.89;30.13;96196.28;4936537;29;20134;-77
2023/06/20 16:16:03;;;;;;;9.13;4.53;;;;;;;31.91;30.00;96191.34;4936230;29;20055;-77
2023/06/20 16:18:30;;;;;;;13.57;5.28;;;;;;;31.91;31.52;96194.03;4936123;29;20445;-77
2023/06/20 16:20:58;;;;;;;38.33;20.67;;;;;;;31.88;31.60;96188.50;4936263;29;20484;-77
2023/06/20 16:23:28;;;;;;;23.25;10.90;;;;;;;31.87;30.49;96187.72;4936475;29;20056;-77
2023/06/20 16:26:05;;;;;;;17.50;4.63;;;;;;;31.83;31.65;96184.88;4935891;29;20138;-76